createdAt,value
2023-03-22T00:00:27.388Z,99.90
2023-03-22T00:03:52.688Z,99.90
2023-03-22T00:07:16.385Z,99.90
2023-03-22T00:10:41.361Z,99.90
2023-03-22T00:14:06.210Z,99.90
2023-03-22T00:17:32.797Z,99.90
2023-03-22T00:20:58.359Z,99.90
2023-03-22T00:24:22.316Z,99.90
2023-03-22T00:27:45.977Z,99.90
2023-03-22T00:31:09.914Z,99.90
2023-03-22T00:34:35.166Z,99.90
2023-03-22T00:38:05.935Z,99.90
2023-03-22T00:41:29.593Z,99.90
2023-03-22T00:44:53.485Z,99.90
2023-03-22T00:48:17.192Z,99.90
2023-03-22T00:51:42.702Z,99.90
2023-03-22T00:55:07.235Z,99.90
2023-03-22T00:58:30.950Z,99.90
2023-03-22T01:01:56.702Z,99.90
2023-03-22T01:05:22.098Z,99.90
2023-03-22T01:08:50.752Z,99.90
2023-03-22T01:12:15.581Z,99.90
2023-03-22T01:15:39.631Z,99.90
2023-03-22T01:19:03.994Z,99.90
2023-03-22T01:22:28.018Z,99.90
2023-03-22T01:25:53.174Z,99.90
2023-03-22T01:29:17.003Z,99.90
2023-03-22T01:32:40.675Z,99.90
2023-03-22T01:36:04.920Z,99.90
2023-03-22T01:39:31.868Z,99.90
2023-03-22T01:42:59.932Z,99.90
2023-03-22T01:46:25.848Z,99.90
2023-03-22T01:49:49.829Z,99.90
2023-03-22T01:53:18.807Z,99.90
2023-03-22T01:56:43.691Z,99.90
2023-03-22T02:00:18.856Z,99.90
2023-03-22T02:04:19.973Z,99.90
2023-03-22T02:07:44.664Z,99.90
2023-03-22T02:11:13.431Z,99.90
2023-03-22T02:14:55.627Z,99.90
2023-03-22T02:19:11.245Z,99.90
2023-03-22T02:23:08.754Z,99.90
2023-03-22T02:26:59.899Z,99.90
2023-03-22T02:30:56.084Z,99.90
2023-03-22T02:34:47.189Z,99.90
2023-03-22T02:38:36.728Z,99.90
2023-03-22T02:42:12.141Z,99.90
2023-03-22T02:45:45.624Z,99.90
2023-03-22T02:49:18.044Z,99.90
2023-03-22T02:52:45.415Z,99.90
2023-03-22T02:56:14.151Z,99.90
2023-03-22T02:59:42.040Z,99.90
2023-03-22T03:03:12.125Z,99.90
2023-03-22T03:06:39.972Z,99.90
2023-03-22T03:10:05.187Z,99.90
2023-03-22T03:13:29.031Z,99.90
2023-03-22T03:17:11.045Z,99.90
2023-03-22T03:20:46.563Z,99.90
2023-03-22T03:24:22.127Z,99.90
2023-03-22T03:27:51.007Z,99.90
2023-03-22T03:31:27.094Z,99.90
2023-03-22T03:34:57.218Z,99.90
2023-03-22T03:38:24.774Z,99.90
2023-03-22T03:41:51.096Z,99.90
2023-03-22T03:45:16.427Z,99.90
2023-03-22T03:48:44.058Z,99.90
2023-03-22T03:52:09.076Z,99.90
2023-03-22T03:55:34.004Z,99.90
2023-03-22T03:58:58.257Z,99.90
2023-03-22T04:02:22.330Z,99.90
2023-03-22T04:05:47.975Z,99.90
2023-03-22T04:09:12.985Z,99.90
2023-03-22T04:12:40.947Z,99.90
2023-03-22T04:16:09.535Z,99.90
2023-03-22T04:19:34.988Z,99.90
2023-03-22T04:22:59.078Z,99.90
2023-03-22T04:26:26.603Z,99.90
2023-03-22T04:30:22.866Z,99.90
2023-03-22T04:34:12.813Z,99.90
2023-03-22T04:37:53.691Z,99.90
2023-03-22T04:41:19.186Z,99.90
2023-03-22T04:44:48.773Z,99.90
2023-03-22T04:48:12.676Z,99.90
2023-03-22T04:51:36.698Z,99.90
2023-03-22T04:55:16.942Z,99.90
2023-03-22T04:58:43.496Z,99.90
2023-03-22T05:02:08.571Z,99.90
2023-03-22T05:05:39.555Z,99.90
2023-03-22T05:09:03.540Z,99.90
2023-03-22T05:12:27.527Z,99.90
2023-03-22T05:16:14.395Z,99.90
2023-03-22T05:19:47.691Z,99.90
2023-03-22T05:23:11.626Z,99.90
2023-03-22T05:26:42.226Z,99.90
2023-03-22T05:30:09.823Z,99.90
2023-03-22T05:33:46.599Z,99.90
2023-03-22T05:37:13.404Z,99.90
2023-03-22T05:40:47.855Z,99.90
2023-03-22T05:44:11.685Z,99.90
2023-03-22T05:47:42.273Z,99.90
2023-03-22T05:51:17.495Z,99.90
2023-03-22T05:54:44.116Z,99.90
2023-03-22T05:58:08.421Z,99.90
2023-03-22T06:01:35.761Z,99.90
2023-03-22T06:05:15.279Z,99.90
2023-03-22T06:08:39.969Z,99.90
2023-03-22T06:12:05.826Z,99.90
2023-03-22T06:15:30.042Z,99.90
2023-03-22T06:19:05.580Z,99.90
2023-03-22T06:22:31.630Z,99.90
2023-03-22T06:25:55.630Z,99.90
2023-03-22T06:29:21.467Z,99.90
2023-03-22T06:32:48.171Z,99.90
2023-03-22T06:36:12.157Z,99.90
2023-03-22T06:39:51.275Z,99.90
2023-03-22T06:43:16.342Z,99.90
2023-03-22T06:46:45.164Z,99.90
2023-03-22T06:50:18.802Z,99.90
2023-03-22T06:53:59.701Z,99.90
2023-03-22T06:57:23.759Z,99.90
2023-03-22T07:00:47.722Z,99.90
2023-03-22T07:04:14.224Z,99.90
2023-03-22T07:07:39.421Z,99.90
2023-03-22T07:11:03.566Z,99.90
2023-03-22T07:14:27.556Z,99.90
2023-03-22T07:18:09.891Z,99.90
2023-03-22T07:21:35.278Z,99.90
2023-03-22T07:25:03.595Z,99.90
2023-03-22T07:28:29.575Z,99.90
2023-03-22T07:31:55.280Z,99.90
2023-03-22T07:35:25.531Z,99.90
2023-03-22T07:38:52.185Z,99.90
2023-03-22T07:42:22.552Z,99.90
2023-03-22T07:46:12.259Z,99.90
2023-03-22T07:49:47.085Z,99.90
2023-03-22T07:53:14.795Z,99.90
2023-03-22T07:56:40.072Z,99.90
2023-03-22T08:00:05.033Z,99.90
2023-03-22T08:03:47.112Z,99.90
2023-03-22T08:07:26.717Z,99.90
2023-03-22T08:10:51.732Z,99.90
2023-03-22T08:14:20.286Z,99.90
2023-03-22T08:17:46.445Z,99.90
2023-03-22T08:21:17.581Z,99.90
2023-03-22T08:24:46.313Z,99.90
2023-03-22T08:28:20.826Z,99.90
2023-03-22T08:31:48.390Z,99.90
2023-03-22T08:35:13.065Z,99.60
2023-03-22T08:38:37.851Z,98.70
2023-03-22T08:42:03.788Z,98.40
2023-03-22T08:45:28.736Z,97.70
2023-03-22T08:49:02.300Z,98.50
2023-03-22T08:52:34.753Z,96.90
2023-03-22T08:56:17.771Z,96.30
2023-03-22T08:59:53.336Z,96.50
2023-03-22T09:03:44.668Z,96.40
2023-03-22T09:07:10.689Z,95.50
2023-03-22T09:10:35.730Z,94.90
2023-03-22T09:13:59.439Z,94.20
2023-03-22T09:17:23.164Z,93.30
2023-03-22T09:20:48.048Z,93.30
2023-03-22T09:24:17.165Z,93.20
2023-03-22T09:27:44.329Z,94.00
2023-03-22T09:31:10.080Z,94.70
2023-03-22T09:34:35.442Z,94.00
2023-03-22T09:38:01.371Z,94.20
2023-03-22T09:41:35.356Z,93.20
2023-03-22T09:45:01.396Z,92.40
2023-03-22T09:48:32.653Z,93.00
2023-03-22T09:51:56.898Z,92.60
2023-03-22T09:55:22.792Z,93.20
2023-03-22T09:58:54.391Z,93.00
2023-03-22T10:02:42.373Z,92.10
2023-03-22T10:06:14.360Z,92.50
2023-03-22T10:09:50.587Z,92.10
2023-03-22T10:13:19.837Z,92.10
2023-03-22T10:16:45.690Z,92.40
2023-03-22T10:20:20.257Z,91.70
2023-03-22T10:23:47.746Z,91.00
2023-03-22T10:27:16.723Z,91.30
2023-03-22T10:30:42.841Z,91.90
2023-03-22T10:34:13.268Z,91.20
2023-03-22T10:37:39.812Z,91.00
2023-03-22T10:41:03.748Z,90.80
2023-03-22T10:44:29.618Z,91.30
2023-03-22T10:48:00.046Z,90.20
2023-03-22T10:51:30.293Z,90.10
2023-03-22T10:54:58.419Z,90.10
2023-03-22T10:58:30.059Z,90.60
2023-03-22T11:01:54.608Z,91.10
2023-03-22T11:05:24.748Z,90.40
2023-03-22T11:08:52.398Z,90.10
2023-03-22T11:12:17.427Z,90.20
2023-03-22T11:15:43.283Z,88.60
2023-03-22T11:19:07.039Z,87.00
2023-03-22T11:22:35.863Z,86.70
2023-03-22T11:26:08.095Z,86.90
2023-03-22T11:29:41.805Z,86.60
2023-03-22T11:33:18.501Z,86.30
2023-03-22T11:40:17.679Z,87.80
2023-03-22T11:43:48.252Z,88.20
2023-03-22T11:47:14.296Z,88.60
2023-03-22T11:50:39.904Z,88.60
2023-03-22T11:54:13.852Z,89.00
2023-03-22T11:57:38.919Z,89.90
2023-03-22T12:01:04.826Z,90.10
2023-03-22T12:04:34.339Z,89.40
2023-03-22T12:08:02.373Z,89.50
2023-03-22T12:11:30.449Z,89.00
2023-03-22T12:14:58.601Z,88.80
2023-03-22T12:18:30.470Z,88.20
2023-03-22T12:21:54.143Z,88.20
2023-03-22T12:25:21.892Z,88.40
2023-03-22T12:28:53.526Z,87.80
2023-03-22T12:32:23.687Z,88.40
2023-03-22T12:35:52.301Z,87.30
2023-03-22T12:39:25.680Z,85.70
2023-03-22T12:43:00.258Z,83.90
2023-03-22T12:46:27.604Z,84.20
2023-03-22T12:49:57.642Z,82.70
2023-03-22T12:53:27.504Z,83.60
2023-03-22T12:56:52.176Z,84.30
2023-03-22T13:00:17.272Z,84.10
2023-03-22T13:03:46.749Z,84.20
2023-03-22T13:07:16.141Z,86.30
2023-03-22T13:10:58.443Z,90.00
2023-03-22T13:14:57.563Z,91.50
2023-03-22T13:18:33.574Z,91.00
2023-03-22T13:22:19.699Z,91.30
2023-03-22T13:26:16.163Z,91.60
2023-03-22T13:29:41.906Z,92.90
2023-03-22T13:33:16.385Z,92.90
2023-03-22T13:36:40.743Z,93.30
2023-03-22T13:40:13.865Z,93.30
2023-03-22T13:43:47.951Z,93.00
2023-03-22T13:47:35.060Z,94.80
2023-03-22T13:51:09.057Z,94.60
2023-03-22T13:54:38.828Z,94.90
2023-03-22T13:58:05.582Z,94.90
2023-03-22T14:01:36.645Z,93.90
2023-03-22T14:05:09.550Z,92.90
2023-03-22T14:08:35.602Z,93.60
2023-03-22T14:12:09.537Z,93.00
2023-03-22T14:15:38.487Z,91.90
2023-03-22T14:19:06.252Z,90.90
